Terminal Aerodrome Forecast
Issued by NWS

Home | Current Version | Previous Version | Text Only | Print | Product List | Glossary On
Versions: 1 2 3 4 5 6 7 8 9 10 11 12
355
FTUS45 KABQ 102339
TAFLVS
TAF
KLVS 102339Z 1100/1124 34010KT P6SM SKC
     FM110130 33006KT P6SM SKC
     FM110400 03007KT P6SM SKC
     FM111500 17007KT P6SM SKC=

USA.gov is the U.S. government's official web portal to all federal, state and local government web resources and services.